Time;durP1;ratioP1;P1;durP2;ratioP2;P2;SDS_P1;SDS_P2;PMS_P1;PMS_P2;Temp;Humidity;BMP_temperature;BMP_pressure;BME280_temperature;BME280_humidity;BME280_pressure;Samples;Min_cycle;Max_cycle;Signal;HPM_P1;HPM_P2
2023/01/09 00:05:34;;;;;;;37.7;27.1;;;;;;;3.3;88.2;97740;;;;
2023/01/09 00:15:34;;;;;;;37.7;27.1;;;;;;;2.9;87.9;97740;;;;
2023/01/09 00:26:34;;;;;;;37.7;27.1;;;;;;;2.7;88.3;97730;;;;
2023/01/09 00:37:34;;;;;;;33.2;24;;;;;;;2.5;88.3;97730;;;;
2023/01/09 00:47:34;;;;;;;33.2;24;;;;;;;2.1;88.3;97740;;;;
2023/01/09 00:58:34;;;;;;;33.2;24;;;;;;;1.9;88.6;97740;;;;
2023/01/09 01:09:34;;;;;;;31.5;18.9;;;;;;;1.8;88.9;97720;;;;
2023/01/09 01:19:34;;;;;;;31.5;18.9;;;;;;;1.7;89.1;97720;;;;
2023/01/09 01:30:34;;;;;;;34.1;18.3;;;;;;;1.7;89.2;97710;;;;
2023/01/09 01:40:34;;;;;;;34.1;18.3;;;;;;;1.7;89.4;97700;;;;
2023/01/09 01:51:34;;;;;;;34.1;18.3;;;;;;;1.6;89.8;97710;;;;
2023/01/09 02:01:35;;;;;;;32.9;19.8;;;;;;;1.7;90;97710;;;;
2023/01/09 02:11:34;;;;;;;32.9;19.8;;;;;;;1.8;90;97690;;;;
2023/01/09 02:22:34;;;;;;;32.9;19.8;;;;;;;1.7;90;97690;;;;
2023/01/09 02:32:34;;;;;;;29.2;20.4;;;;;;;1.7;89.9;97690;;;;
2023/01/09 02:43:34;;;;;;;29.2;20.4;;;;;;;1.6;89.9;97680;;;;
2023/01/09 02:53:34;;;;;;;29.2;20.4;;;;;;;1.6;90;97680;;;;
2023/01/09 03:03:34;;;;;;;35.5;21;;;;;;;1.5;89.8;97690;;;;
2023/01/09 03:14:34;;;;;;;35.5;21;;;;;;;1.4;89.8;97680;;;;
2023/01/09 03:25:34;;;;;;;35.5;21;;;;;;;1.2;89.7;97660;;;;
2023/01/09 03:35:34;;;;;;;34.2;21.3;;;;;;;1.2;90.2;97650;;;;
2023/01/09 03:45:34;;;;;;;34.2;21.3;;;;;;;1.3;90.9;97640;;;;
2023/01/09 03:56:34;;;;;;;34.2;21.3;;;;;;;1.4;91.5;97620;;;;
2023/01/09 04:06:34;;;;;;;33.3;22.7;;;;;;;1.7;91.7;97600;;;;
2023/01/09 04:16:34;;;;;;;33.3;22.7;;;;;;;1.8;91.8;97580;;;;
2023/01/09 04:27:34;;;;;;;33.3;22.7;;;;;;;2;91.7;97580;;;;
2023/01/09 04:37:35;;;;;;;32.5;20;;;;;;;2;91.6;97570;;;;
2023/01/09 04:47:34;;;;;;;32.5;20;;;;;;;2.4;91.8;97550;;;;
2023/01/09 04:58:34;;;;;;;32.5;20;;;;;;;2.6;91.6;97540;;;;
2023/01/09 05:08:34;;;;;;;34.6;21.6;;;;;;;2.5;91.1;97540;;;;
2023/01/09 05:18:34;;;;;;;34.6;21.6;;;;;;;2.7;91;97530;;;;
2023/01/09 05:29:34;;;;;;;35.8;22.3;;;;;;;2.8;90.7;97530;;;;
2023/01/09 05:39:34;;;;;;;35.8;22.3;;;;;;;2.9;90.4;97530;;;;
2023/01/09 05:50:34;;;;;;;35.8;22.3;;;;;;;2.7;89.6;97520;;;;
2023/01/09 06:01:34;;;;;;;32.3;21.7;;;;;;;3;89.8;97520;;;;
2023/01/09 06:12:34;;;;;;;32.3;21.7;;;;;;;3;89.6;97510;;;;
2023/01/09 06:22:34;;;;;;;32.3;21.7;;;;;;;3;89.6;97510;;;;
2023/01/09 06:33:34;;;;;;;31.4;19.7;;;;;;;3.3;89.6;97500;;;;
2023/01/09 06:44:35;;;;;;;31.4;19.7;;;;;;;3.2;88.9;97490;;;;
2023/01/09 06:55:34;;;;;;;31.4;19.7;;;;;;;3.4;89.2;97470;;;;
2023/01/09 07:05:34;;;;;;;26.7;17.2;;;;;;;3.7;89.3;97480;;;;
2023/01/09 07:16:34;;;;;;;26.7;17.2;;;;;;;4.4;90.1;97490;;;;
2023/01/09 07:33:08;;;;;;;9.1;5.6;;;;;;;5.5;90.7;97480;;;;
2023/01/09 07:43:08;;;;;;;9.1;5.6;;;;;;;6.2;90.2;97490;;;;
2023/01/09 07:53:08;;;;;;;9.1;5.6;;;;;;;6.9;88.3;97490;;;;
2023/01/09 08:03:08;;;;;;;6.3;3.9;;;;;;;7.4;85.4;97480;;;;
2023/01/09 08:14:08;;;;;;;6.3;3.9;;;;;;;7.9;83.7;97470;;;;
2023/01/09 08:24:08;;;;;;;5.2;3.1;;;;;;;8.2;81.5;97470;;;;
2023/01/09 08:34:08;;;;;;;5.2;3.1;;;;;;;8.8;78.3;97460;;;;
2023/01/09 08:56:09;;;;;;;8.5;6.5;;;;;;;9.3;76.2;97470;;;;
2023/01/09 09:07:08;;;;;;;8.5;6.5;;;;;;;9.5;77.1;97440;;;;
2023/01/09 09:17:08;;;;;;;8.5;6.5;;;;;;;9.7;77.1;97440;;;;
2023/01/09 09:28:08;;;;;;;4.8;3.1;;;;;;;10;76.6;97440;;;;
2023/01/09 09:39:08;;;;;;;4.8;3.1;;;;;;;10.2;74.9;97420;;;;
2023/01/09 09:49:08;;;;;;;4.8;3.1;;;;;;;10;75.3;97410;;;;
2023/01/09 09:59:08;;;;;;;27;23.1;;;;;;;9.3;76;97420;;;;
2023/01/09 10:09:08;;;;;;;27;23.1;;;;;;;8.9;77.1;97420;;;;
2023/01/09 10:19:08;;;;;;;27;23.1;;;;;;;8.5;78.9;97410;;;;
2023/01/09 10:30:08;;;;;;;36.9;31.6;;;;;;;8.6;79.9;97390;;;;
2023/01/09 10:40:08;;;;;;;36.9;31.6;;;;;;;8.9;78.9;97360;;;;
2023/01/09 10:51:08;;;;;;;36.9;31.6;;;;;;;10.3;73.8;97350;;;;
2023/01/09 11:01:08;;;;;;;9.2;5.7;;;;;;;10.9;72;97340;;;;
2023/01/09 11:11:08;;;;;;;9.2;5.7;;;;;;;11.3;70.1;97330;;;;
2023/01/09 11:21:08;;;;;;;9.2;5.7;;;;;;;11.4;70;97330;;;;
2023/01/09 11:31:08;;;;;;;5.6;3.5;;;;;;;11.2;71;97320;;;;
2023/01/09 11:41:08;;;;;;;5.6;3.5;;;;;;;11.3;70.6;97310;;;;
2023/01/09 11:51:08;;;;;;;5.6;3.5;;;;;;;11.5;69.1;97300;;;;
2023/01/09 12:01:08;;;;;;;3.9;2.1;;;;;;;11.5;69.2;97320;;;;
2023/01/09 12:12:09;;;;;;;3.9;2.1;;;;;;;11.5;70.2;97320;;;;
2023/01/09 12:23:08;;;;;;;3.9;2.1;;;;;;;11.4;70.7;97310;;;;
2023/01/09 12:33:09;;;;;;;7.3;4.8;;;;;;;11.4;70.4;97310;;;;
2023/01/09 12:43:08;;;;;;;7.3;4.8;;;;;;;11.3;71.8;97310;;;;
2023/01/09 12:54:08;;;;;;;13.4;9.1;;;;;;;11.2;72.8;97310;;;;
2023/01/09 13:04:09;;;;;;;13.4;9.1;;;;;;;11.1;73.9;97310;;;;
2023/01/09 13:14:09;;;;;;;13.4;9.1;;;;;;;11;74.2;97310;;;;
2023/01/09 13:25:09;;;;;;;16;12.5;;;;;;;10.9;73.9;97310;;;;
2023/01/09 13:35:08;;;;;;;16;12.5;;;;;;;11;74;97310;;;;
2023/01/09 13:45:08;;;;;;;16;12.5;;;;;;;10.9;75;97320;;;;
2023/01/09 13:55:09;;;;;;;26.9;23.4;;;;;;;10.7;75.3;97340;;;;
2023/01/09 14:05:09;;;;;;;26.9;23.4;;;;;;;10.5;74.8;97370;;;;
2023/01/09 14:15:09;;;;;;;26.9;23.4;;;;;;;10.4;75.4;97380;;;;
2023/01/09 14:26:09;;;;;;;24.7;19.4;;;;;;;10.2;76.1;97400;;;;
2023/01/09 14:36:09;;;;;;;24.7;19.4;;;;;;;10;76.4;97400;;;;
2023/01/09 14:46:09;;;;;;;24.7;19.4;;;;;;;9.9;77;97400;;;;
2023/01/09 14:56:13;;;;;;;27.6;20;;;;;;;9.8;77.3;97410;;;;
2023/01/09 15:07:09;;;;;;;27.6;20;;;;;;;9.7;77.7;97420;;;;
2023/01/09 15:17:09;;;;;;;27.6;20;;;;;;;9.7;76.9;97420;;;;
2023/01/09 15:28:09;;;;;;;17.1;12.6;;;;;;;9.7;76.7;97440;;;;
2023/01/09 15:38:09;;;;;;;17.1;12.6;;;;;;;9.8;76.7;97450;;;;
2023/01/09 15:49:09;;;;;;;17.1;12.6;;;;;;;9.9;77.3;97470;;;;
2023/01/09 15:59:09;;;;;;;12.3;6.8;;;;;;;9.8;78.6;97490;;;;
2023/01/09 16:10:09;;;;;;;12.3;6.8;;;;;;;9.7;80.6;97520;;;;
2023/01/09 16:20:09;;;;;;;12.3;6.8;;;;;;;9.4;83.1;97520;;;;
2023/01/09 16:31:09;;;;;;;11.9;7.6;;;;;;;9.3;83.7;97530;;;;
2023/01/09 16:43:15;;;;;;;11.9;7.6;;;;;;;9.3;83.9;97530;;;;
2023/01/09 16:52:09;;;;;;;11.9;7.6;;;;;;;9.3;84;97530;;;;
2023/01/09 17:03:09;;;;;;;11.5;8.2;;;;;;;9.2;84.2;97540;;;;
2023/01/09 17:13:09;;;;;;;11.5;8.2;;;;;;;9.1;84.1;97560;;;;
2023/01/09 17:34:09;;;;;;;11.1;10;;;;;;;9.1;84;97590;;;;
2023/01/09 17:44:09;;;;;;;11.1;10;;;;;;;9.1;83.8;97600;;;;
2023/01/09 17:55:09;;;;;;;21.6;16.9;;;;;;;9.1;83.4;97610;;;;
2023/01/09 18:06:09;;;;;;;21.6;16.9;;;;;;;8.9;83.3;97600;;;;
2023/01/09 18:16:09;;;;;;;21.6;16.9;;;;;;;8.9;83.5;97610;;;;
2023/01/09 18:27:09;;;;;;;19.1;15.1;;;;;;;8.8;84.2;97620;;;;
2023/01/09 18:37:09;;;;;;;19.1;15.1;;;;;;;8.7;84.1;97620;;;;
2023/01/09 18:48:09;;;;;;;19.1;15.1;;;;;;;8.7;83.7;97620;;;;
2023/01/09 18:59:09;;;;;;;22.6;18.1;;;;;;;8.6;83.3;97630;;;;
2023/01/09 19:10:09;;;;;;;22.6;18.1;;;;;;;8.6;83.1;97640;;;;
2023/01/09 19:20:09;;;;;;;22.6;18.1;;;;;;;8.6;82.7;97660;;;;
2023/01/09 19:31:09;;;;;;;21.3;17.4;;;;;;;8.6;82.5;97660;;;;
2023/01/09 19:41:11;;;;;;;21.3;17.4;;;;;;;8.6;82.5;97660;;;;
2023/01/09 19:52:09;;;;;;;21.3;17.4;;;;;;;8.5;82.5;97660;;;;
2023/01/09 20:03:09;;;;;;;25.8;18.5;;;;;;;8.5;82.6;97660;;;;
2023/01/09 20:14:09;;;;;;;25.8;18.5;;;;;;;8.3;83.1;97680;;;;
2023/01/09 20:25:09;;;;;;;26;21.3;;;;;;;8.3;83.4;97670;;;;
2023/01/09 20:35:09;;;;;;;26;21.3;;;;;;;8.3;83.4;97680;;;;
2023/01/09 20:46:09;;;;;;;26;21.3;;;;;;;8.3;83.4;97680;;;;
2023/01/09 20:57:09;;;;;;;26.9;22.2;;;;;;;8.3;83.2;97680;;;;
2023/01/09 21:07:09;;;;;;;26.9;22.2;;;;;;;8.2;83.4;97690;;;;
2023/01/09 21:18:09;;;;;;;26.9;22.2;;;;;;;8.3;83.4;97690;;;;
2023/01/09 21:29:09;;;;;;;32;25.8;;;;;;;8.2;83.7;97720;;;;
2023/01/09 21:39:09;;;;;;;32;25.8;;;;;;;8.1;84.1;97730;;;;
2023/01/09 21:49:09;;;;;;;32;25.8;;;;;;;8;84.4;97730;;;;
2023/01/09 22:00:09;;;;;;;29.3;23.5;;;;;;;8;84.7;97740;;;;
2023/01/09 22:11:09;;;;;;;29.3;23.5;;;;;;;8;84.9;97750;;;;
2023/01/09 22:22:09;;;;;;;29.3;23.5;;;;;;;7.9;85.7;97750;;;;
2023/01/09 22:32:09;;;;;;;26.5;23.1;;;;;;;7.8;86.4;97760;;;;
2023/01/09 22:42:09;;;;;;;26.5;23.1;;;;;;;7.7;87;97760;;;;
2023/01/09 22:53:09;;;;;;;30.8;25.5;;;;;;;7.6;88;97760;;;;
2023/01/09 23:03:09;;;;;;;30.8;25.5;;;;;;;7.4;88.4;97770;;;;
2023/01/09 23:13:09;;;;;;;30.8;25.5;;;;;;;7.3;89.2;97770;;;;
2023/01/09 23:23:09;;;;;;;35.8;30.4;;;;;;;7.2;89.3;97780;;;;
2023/01/09 23:33:09;;;;;;;35.8;30.4;;;;;;;7.1;89.8;97780;;;;
2023/01/09 23:44:09;;;;;;;35.8;30.4;;;;;;;7;90.1;97790;;;;
2023/01/09 23:55:09;;;;;;;41.5;33.9;;;;;;;7;90.2;97800;;;;
